TimeCEST,TemperatureF,Dew PointF,Humidity,Sea Level PressureIn,VisibilityMPH,Wind Direction,Wind SpeedMPH,Gust SpeedMPH,PrecipitationIn,Events,Conditions,WindDirDegrees,DateUTC
12:25 AM,69.8,48.2,46,30.27,6.2,East,11.5,-,N/A,,Unknown,90,2012-05-24 22:25:00
12:55 AM,66.2,48.2,52,30.30,6.2,East,9.2,-,N/A,,Unknown,80,2012-05-24 22:55:00
1:25 AM,66.2,48.2,52,30.27,6.2,East,10.4,-,N/A,,Unknown,80,2012-05-24 23:25:00
1:55 AM,66.2,48.2,52,30.27,6.2,East,11.5,-,N/A,,Unknown,80,2012-05-24 23:55:00
2:00 AM,65,48,43,30.30,28,East,11.2,,,,,80,2012-05-25 00:00:00
2:25 AM,66.2,48.2,52,30.27,6.2,East,11.5,-,N/A,,Unknown,80,2012-05-25 00:25:00
2:55 AM,64.4,46.4,52,30.27,6.2,East,11.5,-,N/A,,Unknown,80,2012-05-25 00:55:00
3:25 AM,64.4,46.4,52,30.27,6.2,East,11.5,-,N/A,,Unknown,80,2012-05-25 01:25:00
3:55 AM,64.4,46.4,52,30.27,6.2,East,12.7,-,N/A,,Unknown,80,2012-05-25 01:55:00
4:25 AM,62.6,46.4,55,30.27,6.2,East,12.7,-,N/A,,Unknown,80,2012-05-25 02:25:00
4:55 AM,62.6,46.4,55,30.27,6.2,East,12.7,-,N/A,,Unknown,80,2012-05-25 02:55:00
5:00 AM,62,46,44,30.30,28,East,11.2,,,,,80,2012-05-25 03:00:00
5:25 AM,60.8,44.6,55,30.30,6.2,East,12.7,-,N/A,,Unknown,80,2012-05-25 03:25:00
5:55 AM,60.8,44.6,55,30.30,6.2,East,12.7,-,N/A,,Unknown,80,2012-05-25 03:55:00
6:25 AM,60.8,44.6,55,30.30,6.2,East,12.7,-,N/A,,Unknown,80,2012-05-25 04:25:00
6:55 AM,60.8,44.6,55,30.30,6.2,East,13.8,-,N/A,,Unknown,80,2012-05-25 04:55:00
7:25 AM,60.8,44.6,55,30.30,6.2,East,13.8,-,N/A,,Unknown,80,2012-05-25 05:25:00
7:55 AM,62.6,44.6,52,30.30,6.2,East,15.0,-,N/A,,Unknown,80,2012-05-25 05:55:00
8:00 AM,63,45,40,30.32,25,East,15.7,,,,,80,2012-05-25 06:00:00
8:25 AM,62.6,44.6,52,30.30,6.2,East,16.1,-,N/A,,Unknown,90,2012-05-25 06:25:00
8:55 AM,64.4,44.6,49,30.30,6.2,East,15.0,-,N/A,,Unknown,100,2012-05-25 06:55:00
9:25 AM,66.2,46.4,49,30.30,6.2,East,15.0,-,N/A,,Unknown,90,2012-05-25 07:25:00
9:55 AM,68.0,46.4,46,30.30,6.2,East,13.8,-,N/A,,Unknown,80,2012-05-25 07:55:00
10:25 AM,69.8,46.4,43,30.30,6.2,East,13.8,-,N/A,,Unknown,90,2012-05-25 08:25:00
10:55 AM,71.6,48.2,43,30.30,6.2,East,12.7,-,N/A,,Unknown,90,2012-05-25 08:55:00
11:00 AM,72,48,31,30.32,19,East,13.4,,,,Scattered Clouds,100,2012-05-25 09:00:00
11:25 AM,71.6,46.4,41,30.30,6.2,East,19.6,-,N/A,,Unknown,90,2012-05-25 09:25:00
11:55 AM,73.4,37.4,27,30.30,6.2,East,17.3,-,N/A,,Unknown,100,2012-05-25 09:55:00
12:25 PM,75.2,39.2,27,30.30,6.2,East,19.6,-,N/A,,Unknown,90,2012-05-25 10:25:00
12:55 PM,75.2,42.8,31,30.30,6.2,East,23.0,-,N/A,,Unknown,80,2012-05-25 10:55:00
1:25 PM,75.2,44.6,34,30.27,6.2,East,20.7,32.2,N/A,,Unknown,90,2012-05-25 11:25:00
1:55 PM,77.0,44.6,32,30.27,6.2,East,19.6,32.2,N/A,,Unknown,80,2012-05-25 11:55:00
2:00 PM,78,46,21,30.29,22,East,22.4,,,,Scattered Clouds,90,2012-05-25 12:00:00
2:25 PM,77.0,44.6,32,30.27,6.2,East,23.0,-,N/A,,Unknown,90,2012-05-25 12:25:00
2:55 PM,78.8,46.4,32,30.27,6.2,East,20.7,-,N/A,,Unknown,90,2012-05-25 12:55:00
3:25 PM,78.8,46.4,32,30.24,6.2,East,17.3,-,N/A,,Unknown,90,2012-05-25 13:25:00
3:55 PM,78.8,46.4,32,30.24,6.2,ENE,20.7,-,N/A,,Unknown,60,2012-05-25 13:55:00
4:25 PM,78.8,46.4,32,30.24,6.2,East,20.7,-,N/A,,Unknown,80,2012-05-25 14:25:00
4:55 PM,78.8,44.6,30,30.24,6.2,East,20.7,32.2,N/A,,Unknown,80,2012-05-25 14:55:00
5:00 PM,79,46,20,30.24,19,East,20.1,,,,,80,2012-05-25 15:00:00
5:25 PM,78.8,44.6,30,30.21,6.2,ENE,24.2,-,N/A,,Unknown,70,2012-05-25 15:25:00
5:55 PM,78.8,46.4,32,30.21,6.2,East,20.7,-,N/A,,Unknown,80,2012-05-25 15:55:00
6:25 PM,78.8,46.4,32,30.21,6.2,ENE,19.6,32.2,N/A,,Unknown,70,2012-05-25 16:25:00
6:55 PM,77.0,48.2,36,30.21,6.2,ENE,20.7,-,N/A,,Unknown,60,2012-05-25 16:55:00
7:25 PM,77.0,48.2,36,30.18,6.2,ENE,19.6,-,N/A,,Unknown,70,2012-05-25 17:25:00
7:55 PM,77.0,48.2,36,30.18,6.2,ENE,21.9,-,N/A,,Unknown,70,2012-05-25 17:55:00
8:00 PM,76,47,26,30.21,28,ENE,17.9,,,,,70,2012-05-25 18:00:00
8:25 PM,75.2,50.0,41,30.18,6.2,ENE,15.0,26.5,N/A,,Unknown,70,2012-05-25 18:25:00
8:55 PM,73.4,50.0,44,30.18,6.2,ENE,15.0,-,N/A,,Unknown,70,2012-05-25 18:55:00
9:25 PM,69.8,57.2,64,30.18,6.2,NE,11.5,-,N/A,,Unknown,40,2012-05-25 19:25:00
9:55 PM,69.8,57.2,64,30.21,6.2,NE,11.5,-,N/A,,Unknown,50,2012-05-25 19:55:00
10:25 PM,68.0,57.2,68,30.21,6.2,NE,11.5,-,N/A,,Unknown,50,2012-05-25 20:25:00
10:55 PM,68.0,57.2,68,30.21,6.2,NE,10.4,-,N/A,,Unknown,40,2012-05-25 20:55:00
11:00 PM,68,58,62,30.23,19,NE,11.2,,,,,40,2012-05-25 21:00:00
11:25 PM,68.0,59.0,73,30.21,6.2,NE,11.5,-,N/A,,Unknown,50,2012-05-25 21:25:00
11:55 PM,66.2,59.0,78,30.21,6.2,NE,12.7,-,N/A,,Unknown,50,2012-05-25 21:55:00